Time;durP1;ratioP1;P1;durP2;ratioP2;P2;SDS_P1;SDS_P2;PMS_P1;PMS_P2;Temp;Humidity;BMP_temperature;BMP_pressure;BME280_temperature;BME280_humidity;BME280_pressure;Samples;Min_cycle;Max_cycle;Signal;HPM_P1;HPM_P2
2024/02/12 00:02:18;;;;;;;1.08;0.98;;;9.40;99.90;;;;;;5019184;28;20045;-40
2024/02/12 00:04:44;;;;;;;2.50;1.05;;;9.40;99.90;;;;;;5017548;28;20480;-41
2024/02/12 00:07:10;;;;;;;1.30;1.15;;;9.50;99.90;;;;;;5017084;28;20491;-40
2024/02/12 00:09:35;;;;;;;2.30;1.13;;;9.50;99.90;;;;;;5016150;28;20074;-39
2024/02/12 00:12:01;;;;;;;1.45;1.13;;;9.50;99.90;;;;;;5010256;28;20036;-36
2024/02/12 00:14:26;;;;;;;1.90;1.27;;;9.50;99.90;;;;;;5010771;28;20026;-40
2024/02/12 00:16:54;;;;;;;2.40;1.55;;;9.50;99.90;;;;;;5010984;28;20026;-39
2024/02/12 00:19:21;;;;;;;2.17;1.02;;;9.50;99.90;;;;;;5010765;28;20029;-40
2024/02/12 00:21:48;;;;;;;3.63;1.02;;;9.40;99.90;;;;;;5011007;28;20438;-41
2024/02/12 00:24:15;;;;;;;1.55;1.05;;;9.40;99.90;;;;;;5010516;28;20083;-37
2024/02/12 00:26:41;;;;;;;5.38;1.05;;;9.40;99.90;;;;;;5006463;28;20085;-43
2024/02/12 00:29:08;;;;;;;1.35;1.25;;;9.30;99.90;;;;;;4991249;28;20037;-43
2024/02/12 00:31:35;;;;;;;1.35;1.10;;;9.30;99.90;;;;;;4991175;28;20022;-40
2024/02/12 00:34:01;;;;;;;1.88;1.67;;;9.40;99.90;;;;;;4989916;28;20027;-40
2024/02/12 00:36:28;;;;;;;1.45;1.27;;;9.30;99.90;;;;;;4992198;28;20037;-41
2024/02/12 00:38:53;;;;;;;1.17;0.90;;;9.30;99.90;;;;;;4991413;28;20109;-40
2024/02/12 00:41:20;;;;;;;4.10;1.35;;;9.30;99.90;;;;;;4991016;28;20406;-41
2024/02/12 00:43:46;;;;;;;1.63;1.00;;;9.30;99.90;;;;;;4991164;28;20096;-40
2024/02/12 00:46:12;;;;;;;5.10;1.33;;;9.30;99.90;;;;;;4990927;28;20031;-42
2024/02/12 00:48:42;;;;;;;2.47;1.00;;;9.20;99.90;;;;;;4991803;28;20026;-42
2024/02/12 00:51:10;;;;;;;5.78;1.60;;;9.30;99.90;;;;;;4991665;28;20022;-44
2024/02/12 00:53:38;;;;;;;1.48;1.20;;;9.20;99.90;;;;;;5010517;28;20414;-41
2024/02/12 00:56:06;;;;;;;1.05;0.88;;;9.20;99.90;;;;;;5009181;28;20022;-44
2024/02/12 00:58:32;;;;;;;3.47;2.42;;;9.20;99.90;;;;;;5010210;28;20502;-41
2024/02/12 01:00:58;;;;;;;36.55;19.88;;;9.10;99.90;;;;;;5010076;28;20094;-40
2024/02/12 01:03:24;;;;;;;13.15;7.07;;;9.10;99.90;;;;;;5009889;28;20030;-40
2024/02/12 01:05:49;;;;;;;1.35;1.02;;;9.10;99.90;;;;;;5009893;28;20499;-41
2024/02/12 01:08:15;;;;;;;1.15;1.05;;;9.10;99.90;;;;;;5010089;28;20076;-43
2024/02/12 01:10:40;;;;;;;1.60;1.20;;;9.20;99.90;;;;;;5010317;28;20591;-43
2024/02/12 01:13:06;;;;;;;1.67;1.00;;;9.20;99.90;;;;;;5009730;28;20029;-38
2024/02/12 01:15:32;;;;;;;1.00;1.00;;;9.20;99.90;;;;;;5009782;28;20041;-39
2024/02/12 01:17:57;;;;;;;8.65;1.10;;;9.20;99.90;;;;;;5008434;28;20030;-41
2024/02/12 01:20:23;;;;;;;2.17;1.45;;;9.30;99.90;;;;;;5009998;28;20026;-43
2024/02/12 01:22:49;;;;;;;1.23;1.10;;;9.20;99.90;;;;;;5008423;28;20029;-40
2024/02/12 01:25:17;;;;;;;1.02;1.00;;;9.20;99.90;;;;;;4998897;28;20402;-41
2024/02/12 01:27:43;;;;;;;2.92;1.15;;;9.20;99.90;;;;;;4991311;28;20095;-41
2024/02/12 01:30:09;;;;;;;2.50;1.00;;;9.20;99.90;;;;;;4992424;28;20026;-41
2024/02/12 01:32:34;;;;;;;1.45;1.35;;;9.10;99.90;;;;;;4992980;28;20049;-42
2024/02/12 01:35:00;;;;;;;2.05;1.50;;;9.10;99.90;;;;;;4991292;28;20035;-43
2024/02/12 01:37:27;;;;;;;1.40;1.30;;;9.10;99.90;;;;;;4993001;28;20089;-41
2024/02/12 01:39:53;;;;;;;2.00;1.17;;;9.10;99.90;;;;;;4992905;28;20054;-41
2024/02/12 01:42:19;;;;;;;2.45;1.30;;;9.00;99.90;;;;;;4991482;28;20089;-40
2024/02/12 01:45:11;;;;;;;1.30;1.20;;;9.10;99.90;;;;;;4992589;28;20022;-41
2024/02/12 01:47:37;;;;;;;1.38;1.30;;;9.20;99.90;;;;;;4992919;28;20053;-41
2024/02/12 01:50:03;;;;;;;1.60;1.50;;;9.10;99.90;;;;;;4992902;28;20026;-39
2024/02/12 01:52:30;;;;;;;1.73;1.30;;;9.10;99.90;;;;;;4992752;28;20045;-43
2024/02/12 01:55:02;;;;;;;2.03;1.20;;;9.20;99.90;;;;;;4992243;28;20113;-42
2024/02/12 01:57:29;;;;;;;1.58;1.48;;;9.30;99.90;;;;;;4992589;28;20029;-39
2024/02/12 01:59:55;;;;;;;1.67;1.58;;;9.20;99.90;;;;;;4992453;28;20100;-42
2024/02/12 02:02:20;;;;;;;2.00;1.80;;;9.10;99.90;;;;;;4992647;28;20018;-41
2024/02/12 02:04:46;;;;;;;2.20;1.60;;;9.20;99.90;;;;;;4992249;28;20019;-42
2024/02/12 02:07:21;;;;;;;3.03;1.50;;;9.20;99.90;;;;;;4992943;28;20097;-40
2024/02/12 02:09:47;;;;;;;;;;;9.10;99.90;;;;;;4993998;28;20026;-40
2024/02/12 02:12:14;;;;;;;1.65;1.30;;;9.10;99.90;;;;;;4992617;28;19906;-45
2024/02/12 02:14:42;;;;;;;3.05;1.05;;;9.00;99.90;;;;;;4992167;28;20022;-42
2024/02/12 02:17:08;;;;;;;1.50;1.35;;;9.00;99.90;;;;;;4992305;28;20031;-41
2024/02/12 02:19:34;;;;;;;2.63;1.10;;;8.90;99.90;;;;;;4992258;28;20034;-42
2024/02/12 02:22:01;;;;;;;1.88;1.08;;;8.90;99.90;;;;;;4992431;28;20026;-43
2024/02/12 02:24:28;;;;;;;1.13;1.13;;;8.90;99.90;;;;;;4993439;28;20075;-43
2024/02/12 02:26:54;;;;;;;1.88;1.25;;;9.00;99.90;;;;;;4993333;28;20030;-39
2024/02/12 02:29:21;;;;;;;2.95;1.35;;;9.00;99.90;;;;;;4992117;28;20023;-41
2024/02/12 02:31:46;;;;;;;1.13;1.10;;;8.90;99.90;;;;;;4991803;28;20484;-40
2024/02/12 02:34:12;;;;;;;1.40;1.10;;;9.00;99.90;;;;;;4991894;28;20031;-43
2024/02/12 02:36:37;;;;;;;1.77;1.50;;;9.00;99.90;;;;;;4992098;28;20035;-40
2024/02/12 02:39:04;;;;;;;1.08;0.98;;;9.00;99.90;;;;;;4992061;28;20042;-40
2024/02/12 02:41:30;;;;;;;1.55;1.08;;;9.00;99.90;;;;;;4992001;28;20082;-41
2024/02/12 02:43:56;;;;;;;1.45;1.20;;;9.00;99.90;;;;;;4991801;28;20073;-44
2024/02/12 02:46:28;;;;;;;2.15;1.10;;;9.00;99.90;;;;;;4991573;28;20026;-40
2024/02/12 02:48:55;;;;;;;1.83;1.13;;;9.00;99.90;;;;;;4991808;28;20034;-38
2024/02/12 02:51:30;;;;;;;1.30;1.20;;;9.00;99.90;;;;;;4991891;28;20022;-40
2024/02/12 02:53:56;;;;;;;2.65;1.00;;;9.00;99.90;;;;;;4991820;28;20034;-40
2024/02/12 02:56:22;;;;;;;1.75;1.10;;;9.00;99.90;;;;;;4991593;28;20030;-40
2024/02/12 02:58:49;;;;;;;2.45;1.60;;;9.00;99.90;;;;;;4992071;28;20022;-40
2024/02/12 03:01:21;;;;;;;1.52;1.17;;;9.00;99.90;;;;;;4991809;28;20033;-41
2024/02/12 03:03:51;;;;;;;1.48;1.17;;;9.00;99.90;;;;;;4991827;28;20676;-40
2024/02/12 03:06:17;;;;;;;1.45;0.98;;;9.00;99.90;;;;;;4991550;28;20081;-42
2024/02/12 03:08:44;;;;;;;1.00;0.90;;;9.10;99.90;;;;;;4991695;28;20028;-40
2024/02/12 03:11:10;;;;;;;1.55;0.98;;;9.10;99.90;;;;;;4991609;28;20539;-40
2024/02/12 03:13:37;;;;;;;1.35;1.05;;;9.10;99.90;;;;;;4991133;28;20073;-42
2024/02/12 03:16:03;;;;;;;1.60;1.00;;;9.10;99.90;;;;;;4991435;28;20022;-40
2024/02/12 03:18:28;;;;;;;0.90;0.90;;;9.00;99.90;;;;;;4990073;28;20407;-41
2024/02/12 03:20:55;;;;;;;3.05;1.20;;;9.00;99.90;;;;;;4991552;28;20026;-40
2024/02/12 03:23:21;;;;;;;1.35;0.98;;;9.10;99.90;;;;;;4991417;28;20026;-41
2024/02/12 03:25:47;;;;;;;1.30;1.20;;;9.10;99.90;;;;;;4991443;28;20031;-40
2024/02/12 03:28:12;;;;;;;0.85;0.85;;;9.10;99.90;;;;;;4991511;28;20037;-41
2024/02/12 03:30:38;;;;;;;1.20;0.75;;;9.20;99.90;;;;;;4991187;28;20030;-43
2024/02/12 03:33:03;;;;;;;0.60;0.60;;;9.20;99.90;;;;;;4991318;28;20033;-42
2024/02/12 03:35:29;;;;;;;1.52;0.80;;;9.20;99.90;;;;;;4991417;28;20447;-40
2024/02/12 03:37:55;;;;;;;1.10;0.90;;;9.20;99.90;;;;;;4991336;28;20098;-40
2024/02/12 03:40:27;;;;;;;3.00;0.60;;;9.30;99.90;;;;;;4991571;28;20023;-40
2024/02/12 03:42:53;;;;;;;0.68;0.50;;;9.30;99.90;;;;;;4991742;28;20033;-47
2024/02/12 03:45:19;;;;;;;1.02;0.60;;;9.20;99.90;;;;;;4990033;28;20030;-42
2024/02/12 03:47:47;;;;;;;1.00;0.90;;;9.20;99.90;;;;;;4991502;28;20503;-43
2024/02/12 04:01:17;;;;;;;3.05;0.90;;;9.30;99.90;;;;;;4994877;28;20030;-41
2024/02/12 04:03:42;;;;;;;0.63;0.63;;;9.30;99.90;;;;;;4994607;28;20045;-42
2024/02/12 04:06:12;;;;;;;0.60;0.60;;;9.30;99.90;;;;;;4994667;28;20042;-40
2024/02/12 04:08:41;;;;;;;0.70;0.70;;;9.40;99.90;;;;;;4994314;28;20451;-43
2024/02/12 04:11:11;;;;;;;1.38;0.55;;;9.40;99.90;;;;;;4994746;28;20068;-40
2024/02/12 04:13:37;;;;;;;0.80;0.80;;;9.40;99.90;;;;;;4994583;28;20026;-40
2024/02/12 04:16:06;;;;;;;0.88;0.68;;;9.40;99.90;;;;;;4992993;28;20030;-38
2024/02/12 04:18:32;;;;;;;1.65;0.70;;;9.40;99.90;;;;;;4994412;28;20097;-41
2024/02/12 04:20:59;;;;;;;0.52;0.52;;;9.40;99.90;;;;;;4993409;28;20026;-40
2024/02/12 04:23:25;;;;;;;4.22;1.00;;;9.40;99.90;;;;;;4997117;28;20014;-41
2024/02/12 04:25:50;;;;;;;0.70;0.70;;;9.30;99.90;;;;;;4997469;28;20022;-39
2024/02/12 04:28:18;;;;;;;0.60;0.60;;;9.40;99.90;;;;;;4996593;28;20034;-44
2024/02/12 04:30:44;;;;;;;0.65;0.65;;;9.30;99.90;;;;;;4997816;28;20029;-40
2024/02/12 04:33:10;;;;;;;0.93;0.80;;;9.30;99.90;;;;;;4997936;28;20034;-40
2024/02/12 04:35:36;;;;;;;3.40;0.85;;;9.30;99.90;;;;;;4996373;28;20369;-40
2024/02/12 04:38:03;;;;;;;1.13;1.02;;;9.30;99.90;;;;;;4997466;28;20038;-41
2024/02/12 04:40:29;;;;;;;1.90;1.45;;;9.30;99.90;;;;;;4998078;28;20030;-40
2024/02/12 04:42:57;;;;;;;0.82;0.82;;;9.20;99.90;;;;;;4996984;28;20038;-41
2024/02/12 04:45:24;;;;;;;3.80;1.00;;;9.20;99.90;;;;;;4996660;28;20041;-42
2024/02/12 04:47:50;;;;;;;0.75;0.73;;;9.50;99.90;;;;;;4994380;28;20030;-39
2024/02/12 04:50:16;;;;;;;0.65;0.65;;;9.30;99.90;;;;;;4992128;28;20027;-43
2024/02/12 04:52:42;;;;;;;0.70;0.70;;;9.30;99.90;;;;;;4991930;28;20033;-40
2024/02/12 04:55:11;;;;;;;1.95;0.80;;;9.30;99.90;;;;;;4993082;28;20034;-41
2024/02/12 04:57:39;;;;;;;0.77;0.77;;;9.30;99.90;;;;;;4993390;28;20022;-43
2024/02/12 05:00:07;;;;;;;0.82;0.82;;;9.30;99.90;;;;;;4993250;28;20062;-43
2024/02/12 05:02:33;;;;;;;3.08;1.17;;;9.20;99.90;;;;;;4992407;28;20169;-41
2024/02/12 05:04:59;;;;;;;1.27;1.20;;;9.20;99.90;;;;;;4992932;28;20097;-40
2024/02/12 05:07:30;;;;;;;0.65;0.65;;;9.20;99.90;;;;;;4993399;28;20048;-40
2024/02/12 05:09:56;;;;;;;0.80;0.77;;;9.20;99.90;;;;;;4994019;28;20023;-38
2024/02/12 05:12:22;;;;;;;0.65;0.65;;;9.20;99.90;;;;;;4992222;28;20037;-43
2024/02/12 05:14:47;;;;;;;0.70;0.70;;;9.20;99.90;;;;;;4991717;28;20031;-42
2024/02/12 05:17:13;;;;;;;0.70;0.70;;;9.20;99.90;;;;;;4992903;28;20031;-40
2024/02/12 05:22:34;;;;;;;1.70;0.73;;;9.20;99.90;;;;;;4992939;28;20045;-42
2024/02/12 05:25:01;;;;;;;3.28;0.70;;;9.10;99.90;;;;;;4992742;28;20018;-41
2024/02/12 05:27:28;;;;;;;0.95;0.95;;;9.20;99.90;;;;;;4992732;28;20067;-42
2024/02/12 05:29:55;;;;;;;1.17;0.70;;;9.30;99.90;;;;;;4992482;28;20506;-39
2024/02/12 05:32:22;;;;;;;5.97;0.93;;;9.10;99.90;;;;;;4992774;28;20101;-41
2024/02/12 05:34:48;;;;;;;0.85;0.80;;;9.20;99.90;;;;;;4992614;28;20026;-42
2024/02/12 05:37:14;;;;;;;0.70;0.70;;;9.20;99.90;;;;;;4992535;28;20031;-41
2024/02/12 05:39:40;;;;;;;1.70;1.27;;;9.20;99.90;;;;;;4992422;28;20399;-45
2024/02/12 05:42:06;;;;;;;0.88;0.88;;;9.20;99.90;;;;;;4993155;28;20073;-43
2024/02/12 05:44:37;;;;;;;3.53;1.20;;;9.20;99.90;;;;;;4992252;28;20508;-41
2024/02/12 05:47:05;;;;;;;1.25;1.23;;;9.20;99.90;;;;;;4991187;28;20037;-40
2024/02/12 05:49:32;;;;;;;1.17;1.17;;;9.20;99.90;;;;;;4992139;28;20037;-40
2024/02/12 05:51:59;;;;;;;1.85;1.35;;;9.20;99.90;;;;;;4992623;28;20069;-41
2024/02/12 05:54:25;;;;;;;1.35;1.25;;;9.20;99.90;;;;;;4992120;28;20038;-43
2024/02/12 05:56:51;;;;;;;3.53;1.48;;;9.30;99.90;;;;;;4991942;28;20034;-41
2024/02/12 05:59:16;;;;;;;1.75;1.65;;;9.30;99.90;;;;;;4990978;28;20109;-39
2024/02/12 06:01:42;;;;;;;1.95;1.70;;;9.30;99.90;;;;;;4992308;28;20026;-41
2024/02/12 06:04:08;;;;;;;1.75;1.65;;;9.30;99.90;;;;;;4991242;28;20073;-42
2024/02/12 06:06:38;;;;;;;2.20;1.70;;;9.30;99.90;;;;;;4991993;28;20373;-41
2024/02/12 06:09:03;;;;;;;4.20;1.80;;;9.40;99.90;;;;;;4990621;28;20057;-42
2024/02/12 06:11:29;;;;;;;5.88;1.60;;;9.30;99.90;;;;;;4992031;28;20034;-41
2024/02/12 06:13:54;;;;;;;1.65;1.40;;;9.30;99.90;;;;;;4992202;28;20053;-40
2024/02/12 06:16:20;;;;;;;2.15;1.83;;;9.20;99.90;;;;;;4992396;28;20080;-43
2024/02/12 06:18:46;;;;;;;2.25;2.10;;;9.20;99.90;;;;;;4992108;28;20423;-40
2024/02/12 06:21:12;;;;;;;1.80;1.70;;;9.20;99.90;;;;;;4992042;28;20053;-40
2024/02/12 06:23:38;;;;;;;2.58;1.92;;;9.20;99.90;;;;;;4992016;28;20022;-41
2024/02/12 06:26:03;;;;;;;4.82;2.22;;;9.20;99.90;;;;;;4992079;28;20373;-39
2024/02/12 06:28:29;;;;;;;8.45;2.45;;;9.20;99.90;;;;;;4992188;28;20026;-41
2024/02/12 06:30:56;;;;;;;4.50;2.28;;;9.10;99.90;;;;;;4992222;28;20036;-41
2024/02/12 06:33:21;;;;;;;4.55;2.92;;;9.10;99.90;;;;;;4994965;28;20019;-40
2024/02/12 06:35:47;;;;;;;2.78;2.03;;;9.20;99.90;;;;;;4995551;28;20073;-47
2024/02/12 06:38:12;;;;;;;2.42;2.20;;;9.10;99.90;;;;;;4995780;28;20435;-40
2024/02/12 06:40:38;;;;;;;2.63;1.98;;;9.10;99.90;;;;;;4995483;28;20125;-40
2024/02/12 06:43:04;;;;;;;4.82;2.45;;;9.10;99.90;;;;;;4995463;28;20105;-42
2024/02/12 06:45:31;;;;;;;2.15;1.95;;;9.20;99.90;;;;;;4993769;28;20030;-39
2024/02/12 06:47:57;;;;;;;7.93;2.17;;;9.10;99.90;;;;;;4995259;28;20105;-39
2024/02/12 06:50:25;;;;;;;4.65;2.53;;;9.10;99.90;;;;;;4993972;28;20444;-43
2024/02/12 06:52:52;;;;;;;3.63;2.42;;;9.20;99.90;;;;;;4992733;28;20041;-40
2024/02/12 06:55:17;;;;;;;4.05;2.40;;;9.20;99.90;;;;;;4991928;28;20400;-45
2024/02/12 06:57:45;;;;;;;4.82;2.30;;;9.20;99.90;;;;;;4991965;28;20033;-41
2024/02/12 07:00:15;;;;;;;3.42;2.70;;;9.20;99.90;;;;;;4991996;28;20030;-41
2024/02/12 07:02:42;;;;;;;3.90;2.47;;;9.20;99.90;;;;;;4991922;28;20025;-42
2024/02/12 07:05:08;;;;;;;6.97;2.60;;;9.20;99.90;;;;;;4992344;28;20492;-41
2024/02/12 07:07:34;;;;;;;4.63;2.60;;;9.20;99.90;;;;;;4993209;28;20030;-43
2024/02/12 07:10:00;;;;;;;2.40;2.13;;;9.20;99.90;;;;;;4992191;28;20030;-41
2024/02/12 07:12:26;;;;;;;3.42;2.63;;;9.20;99.90;;;;;;4990581;28;20037;-41
2024/02/12 07:14:52;;;;;;;5.97;2.83;;;9.20;99.90;;;;;;4991631;28;20030;-42
2024/02/12 07:17:19;;;;;;;7.18;3.25;;;9.30;99.90;;;;;;4991726;28;20038;-40
2024/02/12 07:19:49;;;;;;;6.13;2.85;;;9.30;99.90;;;;;;4991547;28;20034;-42
2024/02/12 07:22:15;;;;;;;5.63;3.20;;;9.30;99.90;;;;;;4991726;28;20022;-42
2024/02/12 07:24:44;;;;;;;2.83;2.35;;;9.30;99.90;;;;;;4992693;28;20033;-41
2024/02/12 07:27:10;;;;;;;3.92;2.10;;;9.20;99.90;;;;;;4994708;28;20034;-40
2024/02/12 07:29:36;;;;;;;6.20;3.30;;;9.20;99.90;;;;;;4995192;28;20032;-39
2024/02/12 07:32:04;;;;;;;7.30;2.65;;;9.20;99.90;;;;;;4995722;28;20491;-41
2024/02/12 07:34:30;;;;;;;5.45;3.05;;;9.10;99.90;;;;;;4995192;28;20019;-41
2024/02/12 07:36:55;;;;;;;5.45;2.50;;;9.10;99.90;;;;;;4995222;28;20030;-42
2024/02/12 07:39:22;;;;;;;2.90;2.67;;;9.10;99.90;;;;;;4995356;28;20439;-45
2024/02/12 07:41:48;;;;;;;3.90;2.72;;;9.10;99.90;;;;;;4995271;28;20034;-41
2024/02/12 07:44:14;;;;;;;8.77;3.78;;;9.10;99.90;;;;;;4994923;28;20026;-41
2024/02/12 07:46:40;;;;;;;6.85;2.90;;;9.00;99.90;;;;;;4995906;28;20022;-43
2024/02/12 07:49:06;;;;;;;6.97;3.17;;;9.10;99.90;;;;;;4995230;28;20034;-42
2024/02/12 07:51:32;;;;;;;5.22;3.38;;;9.10;99.90;;;;;;4994967;28;20064;-41
2024/02/12 07:53:57;;;;;;;5.60;2.97;;;9.00;99.90;;;;;;4994819;28;20027;-40
2024/02/12 07:56:23;;;;;;;4.60;3.30;;;9.10;99.90;;;;;;4994970;28;20391;-40
2024/02/12 07:58:49;;;;;;;4.72;2.78;;;9.10;99.90;;;;;;4994923;28;20034;-40
2024/02/12 08:01:15;;;;;;;3.88;3.25;;;9.10;99.90;;;;;;4994931;28;20499;-40
2024/02/12 08:03:42;;;;;;;7.18;4.50;;;9.20;99.90;;;;;;5008650;28;20450;-40
2024/02/12 08:06:09;;;;;;;5.55;3.10;;;9.30;99.90;;;;;;4994832;28;20031;-40
2024/02/12 08:08:34;;;;;;;5.65;2.85;;;9.30;99.90;;;;;;4999595;28;20030;-40
2024/02/12 08:11:00;;;;;;;6.25;3.60;;;9.30;99.90;;;;;;5014456;28;20033;-41
2024/02/12 08:13:25;;;;;;;4.18;2.45;;;9.40;99.90;;;;;;5012923;28;20077;-40
2024/02/12 08:15:51;;;;;;;8.27;3.35;;;9.40;99.90;;;;;;5009758;28;20026;-40
2024/02/12 08:18:17;;;;;;;3.92;2.70;;;9.40;99.90;;;;;;5001461;28;20174;-42
2024/02/12 08:20:42;;;;;;;4.00;2.85;;;9.40;99.90;;;;;;5006861;28;20041;-41
2024/02/12 08:23:08;;;;;;;5.72;2.88;;;9.50;99.90;;;;;;4999795;28;20022;-40
2024/02/12 08:25:33;;;;;;;5.95;2.92;;;9.40;99.90;;;;;;5008212;28;20037;-41
2024/02/12 08:27:59;;;;;;;7.00;3.03;;;9.40;99.90;;;;;;5014014;28;20038;-42
2024/02/12 08:30:24;;;;;;;8.52;3.78;;;9.50;99.90;;;;;;5012041;28;20426;-43
2024/02/12 08:32:50;;;;;;;5.20;3.40;;;9.50;99.90;;;;;;5005051;28;20037;-40
2024/02/12 08:35:15;;;;;;;7.38;4.35;;;9.50;99.90;;;;;;5004673;28;20088;-42
2024/02/12 08:37:41;;;;;;;6.70;3.85;;;9.50;99.90;;;;;;5012229;28;20030;-45
2024/02/12 08:40:11;;;;;;;5.68;3.67;;;9.60;99.90;;;;;;4992829;28;20133;-41
2024/02/12 08:42:38;;;;;;;7.13;2.80;;;9.60;99.90;;;;;;5001901;28;20402;-46
2024/02/12 08:45:04;;;;;;;12.45;4.38;;;9.60;99.90;;;;;;5006015;28;20084;-44
2024/02/12 08:47:30;;;;;;;4.78;3.17;;;9.60;99.90;;;;;;4993698;28;20018;-42
2024/02/12 08:49:55;;;;;;;6.07;4.13;;;9.70;99.90;;;;;;4993688;28;20395;-43
2024/02/12 08:52:21;;;;;;;6.22;3.03;;;9.70;99.90;;;;;;5001616;28;20029;-42
2024/02/12 08:54:47;;;;;;;4.70;3.38;;;9.60;99.90;;;;;;5011515;28;20117;-42
2024/02/12 08:57:14;;;;;;;6.28;3.30;;;9.60;99.90;;;;;;5013065;28;20026;-42
2024/02/12 08:59:42;;;;;;;9.57;3.25;;;9.60;99.90;;;;;;5013195;28;20088;-41
2024/02/12 09:02:08;;;;;;;8.18;3.78;;;9.60;99.90;;;;;;5013074;28;20028;-41
2024/02/12 09:04:33;;;;;;;6.18;3.70;;;9.60;99.90;;;;;;5013152;28;20034;-42
2024/02/12 09:07:02;;;;;;;4.65;2.95;;;9.60;99.90;;;;;;5013177;28;20430;-40
2024/02/12 09:09:28;;;;;;;8.00;3.58;;;9.60;99.90;;;;;;4996084;28;20022;-41
2024/02/12 09:11:54;;;;;;;9.07;3.85;;;9.60;99.90;;;;;;5013231;28;20113;-39
2024/02/12 09:14:20;;;;;;;7.32;3.45;;;;;;;;;;5010530;28;20555;-40
2024/02/12 09:16:48;;;;;;;5.28;4.10;;;9.50;99.90;;;;;;5002914;28;20030;-44
2024/02/12 09:19:14;;;;;;;9.82;3.20;;;9.50;99.90;;;;;;5000171;28;20403;-40
2024/02/12 09:21:41;;;;;;;6.93;3.60;;;9.50;99.90;;;;;;5012739;28;20100;-41
2024/02/12 09:24:07;;;;;;;6.07;3.60;;;9.50;99.90;;;;;;5001455;28;20507;-40
2024/02/12 09:26:33;;;;;;;5.95;3.53;;;9.50;99.90;;;;;;5012457;28;20038;-39
2024/02/12 09:28:58;;;;;;;6.57;3.53;;;9.40;99.90;;;;;;5011383;28;20429;-40
2024/02/12 09:31:27;;;;;;;10.27;3.72;;;9.40;99.90;;;;;;4992657;28;20049;-40
2024/02/12 09:33:53;;;;;;;9.32;3.60;;;9.40;99.90;;;;;;5007084;28;20037;-40
2024/02/12 09:36:19;;;;;;;7.55;3.70;;;9.40;99.90;;;;;;4998246;28;20030;-41
2024/02/12 09:38:45;;;;;;;6.22;4.00;;;9.40;99.90;;;;;;5003262;28;20550;-40
2024/02/12 09:41:14;;;;;;;25.75;17.33;;;9.40;99.90;;;;;;4992547;28;20022;-40
2024/02/12 09:43:46;;;;;;;13.88;7.25;;;9.30;99.90;;;;;;4997391;28;20018;-40
2024/02/12 09:46:14;;;;;;;9.65;5.18;;;9.40;99.90;;;;;;5008066;28;20026;-39
2024/02/12 09:48:40;;;;;;;7.22;4.40;;;9.30;99.90;;;;;;5008764;28;20411;-39
2024/02/12 09:51:07;;;;;;;5.75;4.10;;;9.30;99.90;;;;;;4992947;28;20027;-37
2024/02/12 09:53:34;;;;;;;10.98;4.68;;;9.30;99.90;;;;;;5007511;28;20426;-40
2024/02/12 09:56:00;;;;;;;6.90;4.28;;;9.30;99.90;;;;;;4998645;28;20072;-39
2024/02/12 09:58:26;;;;;;;5.43;3.85;;;9.30;99.90;;;;;;5001581;28;20113;-40
2024/02/12 10:00:51;;;;;;;5.85;4.05;;;9.40;99.90;;;;;;4982912;28;20061;-40
2024/02/12 10:03:17;;;;;;;5.40;3.83;;;9.40;99.90;;;;;;5010169;28;20030;-37
2024/02/12 10:05:43;;;;;;;9.52;4.85;;;9.40;99.90;;;;;;4992790;28;20038;-40
2024/02/12 10:08:22;;;;;;;5.25;4.20;;;9.30;99.90;;;;;;4992456;28;20451;-39
2024/02/12 10:10:48;;;;;;;5.20;4.03;;;9.40;99.90;;;;;;4992692;28;20018;-39
2024/02/12 10:13:14;;;;;;;4.57;3.33;;;9.40;99.90;;;;;;4991072;28;20037;-39
2024/02/12 10:15:39;;;;;;;4.15;3.53;;;9.40;99.90;;;;;;4992000;28;20507;-41
2024/02/12 10:18:07;;;;;;;9.88;3.63;;;9.50;99.90;;;;;;4991958;28;20038;-41
2024/02/12 10:20:32;;;;;;;4.63;3.03;;;9.50;99.90;;;;;;4992133;28;20109;-41
2024/02/12 10:23:01;;;;;;;7.60;3.50;;;9.50;99.90;;;;;;4992044;28;20101;-39
2024/02/12 10:25:27;;;;;;;5.85;3.40;;;9.50;99.90;;;;;;4991998;28;20514;-42
2024/02/12 10:27:52;;;;;;;5.68;3.30;;;9.50;99.90;;;;;;4992069;28;20054;-40
2024/02/12 10:30:18;;;;;;;6.82;3.85;;;9.50;99.90;;;;;;4992084;28;20045;-43
2024/02/12 10:32:50;;;;;;;4.68;4.25;;;9.50;99.90;;;;;;4992127;28;20025;-40
2024/02/12 10:35:15;;;;;;;8.93;3.50;;;9.50;99.90;;;;;;4992000;28;20113;-44
2024/02/12 10:37:43;;;;;;;4.68;4.00;;;9.60;99.90;;;;;;4974586;28;20089;-40
2024/02/12 10:40:13;;;;;;;3.80;3.38;;;9.60;99.90;;;;;;4992010;28;20022;-40
2024/02/12 10:42:51;;;;;;;5.00;3.72;;;9.60;99.90;;;;;;4992094;28;20019;-40
2024/02/12 10:45:18;;;;;;;4.75;4.05;;;9.60;99.90;;;;;;4991845;28;20373;-41
2024/02/12 10:47:44;;;;;;;4.45;3.17;;;9.60;99.90;;;;;;4990817;28;20424;-43
2024/02/12 10:50:13;;;;;;;4.28;2.70;;;9.60;99.90;;;;;;4992625;28;20480;-45
2024/02/12 10:52:41;;;;;;;5.22;3.22;;;9.60;99.90;;;;;;4991921;28;20022;-43
2024/02/12 10:55:09;;;;;;;7.18;3.95;;;9.70;99.90;;;;;;4991990;28;20034;-40
2024/02/12 10:57:38;;;;;;;5.70;3.33;;;9.60;99.90;;;;;;4991624;28;20136;-42
2024/02/12 11:00:06;;;;;;;4.82;3.60;;;9.60;99.90;;;;;;4994527;28;20084;-40
2024/02/12 11:02:45;;;;;;;6.80;3.08;;;9.70;99.90;;;;;;4995920;28;20049;-40
2024/02/12 11:05:12;;;;;;;6.28;3.50;;;9.70;99.90;;;;;;4995374;28;20026;-41
2024/02/12 11:07:37;;;;;;;3.67;2.70;;;9.70;99.90;;;;;;4995867;28;20023;-40
2024/02/12 11:10:05;;;;;;;3.75;2.63;;;9.90;99.90;;;;;;4995742;28;20109;-40
2024/02/12 11:12:33;;;;;;;3.33;2.90;;;9.90;99.90;;;;;;4995730;28;20034;-44
2024/02/12 11:15:10;;;;;;;4.30;3.03;;;10.00;99.90;;;;;;4995781;28;20022;-40
2024/02/12 11:17:36;;;;;;;5.43;2.97;;;10.10;99.90;;;;;;4995592;28;20399;-41
2024/02/12 11:20:05;;;;;;;4.88;3.25;;;10.20;99.90;;;;;;4978536;28;20117;-44
2024/02/12 11:22:31;;;;;;;4.18;2.95;;;10.20;99.90;;;;;;4996376;28;20034;-42
2024/02/12 11:25:03;;;;;;;5.05;3.25;;;10.30;99.90;;;;;;4995577;28;20026;-39
2024/02/12 11:27:41;;;;;;;4.18;2.72;;;10.50;99.90;;;;;;4995513;28;20041;-44
2024/02/12 11:30:10;;;;;;;10.20;2.78;;;10.50;99.90;;;;;;4995952;28;20038;-40
2024/02/12 11:32:39;;;;;;;3.80;2.80;;;10.60;99.90;;;;;;4995329;28;20220;-45
2024/02/12 11:35:12;;;;;;;7.47;3.50;;;10.70;99.90;;;;;;4994836;28;20034;-40
2024/02/12 11:37:40;;;;;;;5.72;3.28;;;10.70;99.90;;;;;;4995421;28;20046;-41
2024/02/12 11:40:09;;;;;;;11.48;3.63;;;10.70;99.90;;;;;;4995231;28;20440;-40
2024/02/12 11:42:35;;;;;;;4.30;2.90;;;10.70;99.90;;;;;;4995126;28;20026;-39
2024/02/12 11:45:01;;;;;;;5.93;3.20;;;10.70;99.90;;;;;;4994722;28;20085;-40
2024/02/12 11:47:27;;;;;;;2.88;2.63;;;10.80;99.90;;;;;;4994958;28;20058;-40
2024/02/12 11:49:53;;;;;;;5.32;3.40;;;10.70;99.90;;;;;;4994859;28;20033;-40
2024/02/12 11:52:21;;;;;;;5.57;3.13;;;10.70;99.90;;;;;;4994962;28;20022;-41
2024/02/12 11:54:47;;;;;;;5.43;3.35;;;10.70;99.90;;;;;;4994488;28;20102;-42
2024/02/12 11:57:13;;;;;;;4.35;2.88;;;10.80;99.90;;;;;;4993560;28;20023;-41
2024/02/12 11:59:38;;;;;;;10.10;3.15;;;10.90;99.90;;;;;;4994993;28;20029;-40
2024/02/12 12:02:05;;;;;;;6.07;3.63;;;11.00;99.90;;;;;;4994718;28;20543;-38
2024/02/12 12:04:34;;;;;;;3.08;2.42;;;11.00;99.90;;;;;;4994432;28;20030;-40
2024/02/12 12:06:59;;;;;;;6.03;2.70;;;11.10;99.90;;;;;;4995000;28;20026;-40
2024/02/12 12:09:25;;;;;;;6.03;2.97;;;11.20;99.90;;;;;;4993254;28;20045;-38
2024/02/12 12:11:51;;;;;;;10.60;3.03;;;11.20;99.90;;;;;;4994210;28;20030;-41
2024/02/12 12:14:16;;;;;;;6.80;3.33;;;11.20;99.90;;;;;;4994326;28;20107;-41
2024/02/12 12:16:42;;;;;;;6.35;3.13;;;11.20;99.90;;;;;;4995085;28;20022;-41
2024/02/12 12:19:09;;;;;;;8.60;3.05;;;11.20;99.90;;;;;;4995193;28;20042;-40
2024/02/12 12:21:35;;;;;;;6.07;3.38;;;11.20;99.90;;;;;;4994532;28;20079;-40
2024/02/12 12:24:01;;;;;;;4.00;2.67;;;11.10;99.90;;;;;;4993027;28;20399;-39
2024/02/12 12:26:27;;;;;;;8.18;3.03;;;11.20;99.90;;;;;;4994128;28;20027;-43
2024/02/12 12:28:53;;;;;;;4.15;2.95;;;11.20;99.90;;;;;;4992854;28;20109;-43
2024/02/12 12:31:18;;;;;;;3.50;2.88;;;11.20;99.90;;;;;;4994742;28;20121;-41
2024/02/12 12:33:44;;;;;;;6.10;2.85;;;11.10;99.90;;;;;;4994101;28;20399;-44
2024/02/12 12:36:10;;;;;;;6.40;3.00;;;11.10;99.90;;;;;;4960532;28;20037;-40
2024/02/12 12:38:40;;;;;;;6.30;3.15;;;11.10;99.90;;;;;;4994303;28;20118;-42
2024/02/12 12:41:07;;;;;;;6.10;3.28;;;11.20;99.90;;;;;;4994201;28;20057;-40
2024/02/12 12:43:33;;;;;;;5.78;2.50;;;11.20;99.90;;;;;;4994377;28;20033;-40
2024/02/12 12:46:00;;;;;;;7.22;3.55;;;11.30;99.90;;;;;;4994273;28;20030;-40
2024/02/12 12:48:25;;;;;;;4.72;3.08;;;11.30;99.90;;;;;;4994985;28;20107;-43
2024/02/12 12:50:52;;;;;;;6.22;2.83;;;11.20;99.90;;;;;;4994061;28;20050;-40
2024/02/12 12:53:18;;;;;;;2.55;2.28;;;11.20;99.90;;;;;;4993821;28;20042;-40
2024/02/12 12:55:43;;;;;;;9.75;3.85;;;11.10;99.90;;;;;;4995344;28;20520;-46
2024/02/12 12:58:10;;;;;;;3.42;2.42;;;11.10;99.90;;;;;;5004188;28;20068;-40
2024/02/12 13:00:37;;;;;;;2.83;2.42;;;11.10;99.90;;;;;;5011803;28;20153;-46
2024/02/12 13:03:04;;;;;;;8.90;3.20;;;11.10;99.90;;;;;;5010936;28;20030;-46
2024/02/12 13:05:29;;;;;;;3.78;2.83;;;11.00;99.90;;;;;;5016671;28;20022;-55
2024/02/12 13:07:57;;;;;;;9.63;3.75;;;11.00;99.90;;;;;;5014921;28;20033;-45